sensor_id;sensor_type;location;lat;lon;timestamp;P1;durP1;ratioP1;P2;durP2;ratioP2
27201;SDS011;14717;46.924;15.474;2023-05-07T00:01:17;7.90;;;5.33;;
27201;SDS011;14717;46.924;15.474;2023-05-07T00:03:43;12.30;;;5.95;;
27201;SDS011;14717;46.924;15.474;2023-05-07T00:08:33;9.48;;;5.65;;
27201;SDS011;14717;46.924;15.474;2023-05-07T00:13:24;9.57;;;5.88;;
27201;SDS011;14717;46.924;15.474;2023-05-07T00:18:15;9.43;;;6.13;;
27201;SDS011;14717;46.924;15.474;2023-05-07T00:23:06;11.17;;;5.60;;
27201;SDS011;14717;46.924;15.474;2023-05-07T00:27:56;8.77;;;5.63;;
27201;SDS011;14717;46.924;15.474;2023-05-07T00:30:27;10.68;;;6.28;;
27201;SDS011;14717;46.924;15.474;2023-05-07T00:35:18;13.80;;;6.63;;
27201;SDS011;14717;46.924;15.474;2023-05-07T00:40:09;11.30;;;6.60;;
27201;SDS011;14717;46.924;15.474;2023-05-07T00:42:35;9.02;;;6.32;;
27201;SDS011;14717;46.924;15.474;2023-05-07T00:45:01;11.63;;;6.60;;
27201;SDS011;14717;46.924;15.474;2023-05-07T00:47:27;12.80;;;6.90;;
27201;SDS011;14717;46.924;15.474;2023-05-07T00:52:19;9.07;;;6.22;;
27201;SDS011;14717;46.924;15.474;2023-05-07T00:54:46;11.45;;;6.72;;
27201;SDS011;14717;46.924;15.474;2023-05-07T00:59:37;12.95;;;6.78;;
27201;SDS011;14717;46.924;15.474;2023-05-07T01:02:03;13.23;;;6.28;;
27201;SDS011;14717;46.924;15.474;2023-05-07T01:06:54;11.00;;;6.38;;
27201;SDS011;14717;46.924;15.474;2023-05-07T01:09:21;10.27;;;6.40;;
27201;SDS011;14717;46.924;15.474;2023-05-07T01:11:49;10.10;;;6.38;;
27201;SDS011;14717;46.924;15.474;2023-05-07T01:14:15;10.77;;;6.45;;
27201;SDS011;14717;46.924;15.474;2023-05-07T01:16:42;10.32;;;6.72;;
27201;SDS011;14717;46.924;15.474;2023-05-07T01:21:38;9.65;;;6.47;;
27201;SDS011;14717;46.924;15.474;2023-05-07T01:24:12;11.48;;;6.72;;
27201;SDS011;14717;46.924;15.474;2023-05-07T01:26:39;11.02;;;6.53;;
27201;SDS011;14717;46.924;15.474;2023-05-07T01:31:30;9.18;;;6.35;;
27201;SDS011;14717;46.924;15.474;2023-05-07T01:33:57;9.95;;;6.20;;
27201;SDS011;14717;46.924;15.474;2023-05-07T01:36:24;11.00;;;6.45;;
27201;SDS011;14717;46.924;15.474;2023-05-07T01:38:52;11.15;;;5.60;;
27201;SDS011;14717;46.924;15.474;2023-05-07T01:43:43;9.63;;;6.07;;
27201;SDS011;14717;46.924;15.474;2023-05-07T01:46:10;10.63;;;6.15;;
27201;SDS011;14717;46.924;15.474;2023-05-07T01:48:37;10.43;;;6.57;;
27201;SDS011;14717;46.924;15.474;2023-05-07T01:53:28;11.43;;;6.57;;
27201;SDS011;14717;46.924;15.474;2023-05-07T01:58:18;20.55;;;7.15;;
27201;SDS011;14717;46.924;15.474;2023-05-07T02:03:09;27.77;;;7.95;;
27201;SDS011;14717;46.924;15.474;2023-05-07T02:08:00;52.47;;;10.10;;
27201;SDS011;14717;46.924;15.474;2023-05-07T02:12:50;12.57;;;6.23;;
27201;SDS011;14717;46.924;15.474;2023-05-07T02:20:28;12.30;;;6.60;;
27201;SDS011;14717;46.924;15.474;2023-05-07T02:25:18;9.43;;;6.07;;
27201;SDS011;14717;46.924;15.474;2023-05-07T02:30:09;9.43;;;5.80;;
27201;SDS011;14717;46.924;15.474;2023-05-07T02:32:35;8.27;;;5.50;;
27201;SDS011;14717;46.924;15.474;2023-05-07T02:37:26;9.47;;;5.53;;
27201;SDS011;14717;46.924;15.474;2023-05-07T02:39:51;10.30;;;5.78;;
27201;SDS011;14717;46.924;15.474;2023-05-07T02:44:42;8.85;;;6.13;;
27201;SDS011;14717;46.924;15.474;2023-05-07T02:47:07;9.80;;;5.43;;
27201;SDS011;14717;46.924;15.474;2023-05-07T02:49:34;10.30;;;5.97;;
27201;SDS011;14717;46.924;15.474;2023-05-07T02:52:00;8.68;;;5.47;;
27201;SDS011;14717;46.924;15.474;2023-05-07T02:54:25;8.70;;;5.50;;
27201;SDS011;14717;46.924;15.474;2023-05-07T02:59:16;8.97;;;5.30;;
27201;SDS011;14717;46.924;15.474;2023-05-07T03:01:41;8.25;;;5.05;;
27201;SDS011;14717;46.924;15.474;2023-05-07T03:04:09;8.07;;;4.68;;
27201;SDS011;14717;46.924;15.474;2023-05-07T03:06:35;7.10;;;4.47;;
27201;SDS011;14717;46.924;15.474;2023-05-07T03:11:26;7.13;;;4.10;;
27201;SDS011;14717;46.924;15.474;2023-05-07T03:16:16;6.53;;;3.83;;
27201;SDS011;14717;46.924;15.474;2023-05-07T03:21:07;6.73;;;4.00;;
27201;SDS011;14717;46.924;15.474;2023-05-07T03:25:58;7.30;;;4.67;;
27201;SDS011;14717;46.924;15.474;2023-05-07T03:28:23;7.68;;;4.82;;
27201;SDS011;14717;46.924;15.474;2023-05-07T03:33:14;8.10;;;5.50;;
27201;SDS011;14717;46.924;15.474;2023-05-07T03:35:39;9.55;;;5.88;;
27201;SDS011;14717;46.924;15.474;2023-05-07T03:38:05;8.60;;;5.43;;
27201;SDS011;14717;46.924;15.474;2023-05-07T03:40:30;8.70;;;5.82;;
27201;SDS011;14717;46.924;15.474;2023-05-07T03:42:55;7.88;;;5.15;;
27201;SDS011;14717;46.924;15.474;2023-05-07T03:45:21;7.68;;;5.03;;
27201;SDS011;14717;46.924;15.474;2023-05-07T03:47:46;7.60;;;5.13;;
27201;SDS011;14717;46.924;15.474;2023-05-07T03:50:12;7.75;;;4.90;;
27201;SDS011;14717;46.924;15.474;2023-05-07T03:55:02;8.13;;;4.53;;
27201;SDS011;14717;46.924;15.474;2023-05-07T03:59:53;8.87;;;4.90;;
27201;SDS011;14717;46.924;15.474;2023-05-07T04:02:18;7.43;;;4.60;;
27201;SDS011;14717;46.924;15.474;2023-05-07T04:04:44;7.13;;;4.40;;
27201;SDS011;14717;46.924;15.474;2023-05-07T04:09:35;8.47;;;5.07;;
27201;SDS011;14717;46.924;15.474;2023-05-07T04:12:00;7.05;;;4.35;;
27201;SDS011;14717;46.924;15.474;2023-05-07T04:14:26;6.85;;;4.30;;
27201;SDS011;14717;46.924;15.474;2023-05-07T04:16:51;6.57;;;4.10;;
27201;SDS011;14717;46.924;15.474;2023-05-07T04:19:17;5.50;;;3.85;;
27201;SDS011;14717;46.924;15.474;2023-05-07T04:21:42;7.07;;;4.10;;
27201;SDS011;14717;46.924;15.474;2023-05-07T04:24:08;5.97;;;4.15;;
27201;SDS011;14717;46.924;15.474;2023-05-07T04:26:33;9.13;;;3.95;;
27201;SDS011;14717;46.924;15.474;2023-05-07T04:28:58;5.38;;;3.55;;
27201;SDS011;14717;46.924;15.474;2023-05-07T04:31:24;5.18;;;3.47;;
27201;SDS011;14717;46.924;15.474;2023-05-07T04:33:50;8.07;;;3.75;;
27201;SDS011;14717;46.924;15.474;2023-05-07T04:36:16;6.35;;;3.53;;
27201;SDS011;14717;46.924;15.474;2023-05-07T04:38:42;5.65;;;3.33;;
27201;SDS011;14717;46.924;15.474;2023-05-07T04:43:33;6.03;;;3.65;;
27201;SDS011;14717;46.924;15.474;2023-05-07T04:45:59;4.38;;;2.83;;
27201;SDS011;14717;46.924;15.474;2023-05-07T04:48:24;5.28;;;2.72;;
27201;SDS011;14717;46.924;15.474;2023-05-07T04:50:51;5.55;;;3.28;;
27201;SDS011;14717;46.924;15.474;2023-05-07T04:53:16;4.15;;;2.83;;
27201;SDS011;14717;46.924;15.474;2023-05-07T04:55:42;4.65;;;2.63;;
27201;SDS011;14717;46.924;15.474;2023-05-07T04:58:08;6.30;;;3.00;;
27201;SDS011;14717;46.924;15.474;2023-05-07T05:00:34;4.93;;;3.08;;
27201;SDS011;14717;46.924;15.474;2023-05-07T05:05:24;4.53;;;2.90;;
27201;SDS011;14717;46.924;15.474;2023-05-07T05:07:50;4.70;;;2.95;;
27201;SDS011;14717;46.924;15.474;2023-05-07T05:10:16;4.03;;;2.72;;
27201;SDS011;14717;46.924;15.474;2023-05-07T05:12:42;5.50;;;3.78;;
27201;SDS011;14717;46.924;15.474;2023-05-07T05:15:08;4.55;;;2.80;;
27201;SDS011;14717;46.924;15.474;2023-05-07T05:17:34;5.05;;;2.50;;
27201;SDS011;14717;46.924;15.474;2023-05-07T05:20:01;3.97;;;2.58;;
27201;SDS011;14717;46.924;15.474;2023-05-07T05:24:54;4.97;;;3.13;;
27201;SDS011;14717;46.924;15.474;2023-05-07T05:27:20;4.10;;;2.90;;
27201;SDS011;14717;46.924;15.474;2023-05-07T05:29:45;4.40;;;2.53;;
27201;SDS011;14717;46.924;15.474;2023-05-07T05:34:36;6.40;;;3.03;;
27201;SDS011;14717;46.924;15.474;2023-05-07T05:39:26;5.22;;;3.25;;
27201;SDS011;14717;46.924;15.474;2023-05-07T05:41:52;6.13;;;3.30;;
27201;SDS011;14717;46.924;15.474;2023-05-07T05:44:17;4.75;;;2.75;;
27201;SDS011;14717;46.924;15.474;2023-05-07T05:46:42;4.97;;;3.08;;
27201;SDS011;14717;46.924;15.474;2023-05-07T05:49:08;6.40;;;3.45;;
27201;SDS011;14717;46.924;15.474;2023-05-07T05:51:33;5.35;;;3.38;;
27201;SDS011;14717;46.924;15.474;2023-05-07T05:56:24;6.80;;;4.20;;
27201;SDS011;14717;46.924;15.474;2023-05-07T05:58:50;6.63;;;4.13;;
27201;SDS011;14717;46.924;15.474;2023-05-07T06:03:42;6.65;;;4.07;;
27201;SDS011;14717;46.924;15.474;2023-05-07T06:08:32;5.80;;;3.58;;
27201;SDS011;14717;46.924;15.474;2023-05-07T06:13:23;7.78;;;4.95;;
27201;SDS011;14717;46.924;15.474;2023-05-07T06:18:14;8.02;;;4.35;;
27201;SDS011;14717;46.924;15.474;2023-05-07T06:23:04;6.77;;;4.57;;
27201;SDS011;14717;46.924;15.474;2023-05-07T06:27:55;7.60;;;4.13;;
27201;SDS011;14717;46.924;15.474;2023-05-07T06:32:46;7.00;;;4.60;;
27201;SDS011;14717;46.924;15.474;2023-05-07T06:37:36;7.77;;;4.17;;
27201;SDS011;14717;46.924;15.474;2023-05-07T06:40:05;5.90;;;4.30;;
27201;SDS011;14717;46.924;15.474;2023-05-07T06:42:31;6.47;;;4.45;;
27201;SDS011;14717;46.924;15.474;2023-05-07T06:47:21;8.23;;;4.30;;
27201;SDS011;14717;46.924;15.474;2023-05-07T06:49:47;7.60;;;4.20;;
27201;SDS011;14717;46.924;15.474;2023-05-07T06:54:37;5.50;;;3.97;;
27201;SDS011;14717;46.924;15.474;2023-05-07T06:57:03;8.05;;;4.45;;
27201;SDS011;14717;46.924;15.474;2023-05-07T07:01:53;6.97;;;4.50;;
27201;SDS011;14717;46.924;15.474;2023-05-07T07:04:18;7.85;;;4.18;;
27201;SDS011;14717;46.924;15.474;2023-05-07T07:06:44;7.00;;;4.10;;
27201;SDS011;14717;46.924;15.474;2023-05-07T07:09:10;8.10;;;4.43;;
27201;SDS011;14717;46.924;15.474;2023-05-07T07:11:36;6.03;;;4.10;;
27201;SDS011;14717;46.924;15.474;2023-05-07T07:14:01;6.28;;;4.35;;
27201;SDS011;14717;46.924;15.474;2023-05-07T07:18:52;7.57;;;4.30;;
27201;SDS011;14717;46.924;15.474;2023-05-07T07:21:17;6.53;;;3.88;;
27201;SDS011;14717;46.924;15.474;2023-05-07T07:23:43;5.88;;;3.90;;
27201;SDS011;14717;46.924;15.474;2023-05-07T07:26:08;7.18;;;4.35;;
27201;SDS011;14717;46.924;15.474;2023-05-07T07:28:34;7.40;;;3.70;;
27201;SDS011;14717;46.924;15.474;2023-05-07T07:31:00;6.45;;;3.58;;
27201;SDS011;14717;46.924;15.474;2023-05-07T07:33:25;7.75;;;4.63;;
27201;SDS011;14717;46.924;15.474;2023-05-07T07:35:50;5.85;;;3.45;;
27201;SDS011;14717;46.924;15.474;2023-05-07T07:38:16;6.35;;;4.07;;
27201;SDS011;14717;46.924;15.474;2023-05-07T07:40:41;5.70;;;4.22;;
27201;SDS011;14717;46.924;15.474;2023-05-07T07:43:08;5.93;;;3.92;;
27201;SDS011;14717;46.924;15.474;2023-05-07T07:45:34;6.13;;;4.20;;
27201;SDS011;14717;46.924;15.474;2023-05-07T07:47:59;5.75;;;3.80;;
27201;SDS011;14717;46.924;15.474;2023-05-07T07:50:25;5.75;;;3.90;;
27201;SDS011;14717;46.924;15.474;2023-05-07T07:52:50;5.50;;;3.63;;
27201;SDS011;14717;46.924;15.474;2023-05-07T07:55:19;5.43;;;3.22;;
27201;SDS011;14717;46.924;15.474;2023-05-07T07:57:47;5.53;;;3.53;;
27201;SDS011;14717;46.924;15.474;2023-05-07T08:00:13;5.55;;;3.72;;
27201;SDS011;14717;46.924;15.474;2023-05-07T08:02:39;5.22;;;3.47;;
27201;SDS011;14717;46.924;15.474;2023-05-07T08:05:04;5.13;;;3.40;;
27201;SDS011;14717;46.924;15.474;2023-05-07T08:07:30;5.85;;;3.50;;
27201;SDS011;14717;46.924;15.474;2023-05-07T08:09:55;5.85;;;3.78;;
27201;SDS011;14717;46.924;15.474;2023-05-07T08:12:21;6.50;;;4.00;;
27201;SDS011;14717;46.924;15.474;2023-05-07T08:14:46;6.43;;;3.60;;
27201;SDS011;14717;46.924;15.474;2023-05-07T08:17:11;5.80;;;3.72;;
27201;SDS011;14717;46.924;15.474;2023-05-07T08:19:38;5.88;;;4.32;;
27201;SDS011;14717;46.924;15.474;2023-05-07T08:22:03;6.22;;;4.28;;
27201;SDS011;14717;46.924;15.474;2023-05-07T08:24:31;6.32;;;3.92;;
27201;SDS011;14717;46.924;15.474;2023-05-07T08:26:57;6.72;;;3.72;;
27201;SDS011;14717;46.924;15.474;2023-05-07T08:29:22;5.53;;;4.10;;
27201;SDS011;14717;46.924;15.474;2023-05-07T08:31:47;4.93;;;3.55;;
27201;SDS011;14717;46.924;15.474;2023-05-07T08:34:13;5.65;;;3.63;;
27201;SDS011;14717;46.924;15.474;2023-05-07T08:36:38;5.95;;;4.30;;
27201;SDS011;14717;46.924;15.474;2023-05-07T08:39:06;5.40;;;3.80;;
27201;SDS011;14717;46.924;15.474;2023-05-07T08:41:32;5.50;;;3.45;;
27201;SDS011;14717;46.924;15.474;2023-05-07T08:43:58;6.85;;;3.80;;
27201;SDS011;14717;46.924;15.474;2023-05-07T08:46:26;5.85;;;3.40;;
27201;SDS011;14717;46.924;15.474;2023-05-07T08:48:56;8.95;;;3.53;;
27201;SDS011;14717;46.924;15.474;2023-05-07T08:51:22;6.43;;;3.63;;
27201;SDS011;14717;46.924;15.474;2023-05-07T08:53:48;7.13;;;3.60;;
27201;SDS011;14717;46.924;15.474;2023-05-07T08:56:15;5.18;;;3.40;;
27201;SDS011;14717;46.924;15.474;2023-05-07T08:58:44;6.20;;;3.30;;
27201;SDS011;14717;46.924;15.474;2023-05-07T09:01:12;4.90;;;3.30;;
27201;SDS011;14717;46.924;15.474;2023-05-07T09:03:39;6.15;;;3.35;;
27201;SDS011;14717;46.924;15.474;2023-05-07T09:06:06;6.65;;;3.53;;
27201;SDS011;14717;46.924;15.474;2023-05-07T09:08:34;6.03;;;3.92;;
27201;SDS011;14717;46.924;15.474;2023-05-07T09:11:00;4.63;;;3.35;;
27201;SDS011;14717;46.924;15.474;2023-05-07T09:13:27;6.65;;;3.95;;
27201;SDS011;14717;46.924;15.474;2023-05-07T09:15:53;5.18;;;3.53;;
27201;SDS011;14717;46.924;15.474;2023-05-07T09:18:18;4.60;;;3.05;;
27201;SDS011;14717;46.924;15.474;2023-05-07T09:20:44;5.20;;;3.30;;
27201;SDS011;14717;46.924;15.474;2023-05-07T09:23:09;5.53;;;3.35;;
27201;SDS011;14717;46.924;15.474;2023-05-07T09:25:35;8.15;;;3.25;;
27201;SDS011;14717;46.924;15.474;2023-05-07T09:28:01;4.47;;;3.30;;
27201;SDS011;14717;46.924;15.474;2023-05-07T09:30:28;5.32;;;3.30;;
27201;SDS011;14717;46.924;15.474;2023-05-07T09:32:58;4.82;;;3.15;;
27201;SDS011;14717;46.924;15.474;2023-05-07T09:35:24;6.43;;;3.38;;
27201;SDS011;14717;46.924;15.474;2023-05-07T09:37:56;4.63;;;3.35;;
27201;SDS011;14717;46.924;15.474;2023-05-07T09:40:23;5.50;;;3.00;;
27201;SDS011;14717;46.924;15.474;2023-05-07T09:42:50;4.53;;;2.92;;
27201;SDS011;14717;46.924;15.474;2023-05-07T09:45:16;3.92;;;2.95;;
27201;SDS011;14717;46.924;15.474;2023-05-07T09:47:46;4.70;;;3.10;;
27201;SDS011;14717;46.924;15.474;2023-05-07T09:50:14;4.38;;;3.40;;
27201;SDS011;14717;46.924;15.474;2023-05-07T09:52:41;4.38;;;2.92;;
27201;SDS011;14717;46.924;15.474;2023-05-07T09:55:09;6.22;;;3.25;;
27201;SDS011;14717;46.924;15.474;2023-05-07T09:57:35;7.40;;;4.53;;
27201;SDS011;14717;46.924;15.474;2023-05-07T10:00:02;4.78;;;3.40;;
27201;SDS011;14717;46.924;15.474;2023-05-07T10:02:32;4.38;;;3.17;;
27201;SDS011;14717;46.924;15.474;2023-05-07T10:05:01;5.85;;;3.17;;
27201;SDS011;14717;46.924;15.474;2023-05-07T10:07:27;4.53;;;2.85;;
27201;SDS011;14717;46.924;15.474;2023-05-07T10:09:53;4.80;;;2.78;;
27201;SDS011;14717;46.924;15.474;2023-05-07T10:12:19;4.68;;;2.80;;
27201;SDS011;14717;46.924;15.474;2023-05-07T10:14:45;5.20;;;2.50;;
27201;SDS011;14717;46.924;15.474;2023-05-07T10:17:13;3.55;;;2.30;;
27201;SDS011;14717;46.924;15.474;2023-05-07T10:19:41;4.72;;;2.55;;
27201;SDS011;14717;46.924;15.474;2023-05-07T10:22:09;3.22;;;2.30;;
27201;SDS011;14717;46.924;15.474;2023-05-07T10:24:35;4.55;;;2.70;;
27201;SDS011;14717;46.924;15.474;2023-05-07T10:27:03;6.03;;;2.72;;
27201;SDS011;14717;46.924;15.474;2023-05-07T10:32:13;3.90;;;2.70;;
27201;SDS011;14717;46.924;15.474;2023-05-07T10:34:56;4.10;;;2.72;;
27201;SDS011;14717;46.924;15.474;2023-05-07T10:37:25;3.45;;;2.40;;
27201;SDS011;14717;46.924;15.474;2023-05-07T10:39:51;4.07;;;2.70;;
27201;SDS011;14717;46.924;15.474;2023-05-07T10:42:17;3.60;;;2.45;;
27201;SDS011;14717;46.924;15.474;2023-05-07T10:44:42;4.55;;;2.63;;
27201;SDS011;14717;46.924;15.474;2023-05-07T10:47:09;3.85;;;2.67;;
27201;SDS011;14717;46.924;15.474;2023-05-07T10:52:14;5.07;;;2.70;;
27201;SDS011;14717;46.924;15.474;2023-05-07T10:54:43;4.72;;;2.80;;
27201;SDS011;14717;46.924;15.474;2023-05-07T10:57:52;3.65;;;2.50;;
27201;SDS011;14717;46.924;15.474;2023-05-07T11:00:40;4.18;;;2.22;;
27201;SDS011;14717;46.924;15.474;2023-05-07T11:03:06;4.15;;;2.50;;
27201;SDS011;14717;46.924;15.474;2023-05-07T11:05:32;3.47;;;2.50;;
27201;SDS011;14717;46.924;15.474;2023-05-07T11:07:59;3.53;;;2.15;;
27201;SDS011;14717;46.924;15.474;2023-05-07T11:13:13;3.88;;;2.78;;
27201;SDS011;14717;46.924;15.474;2023-05-07T11:15:40;4.43;;;3.03;;
27201;SDS011;14717;46.924;15.474;2023-05-07T11:18:08;3.88;;;2.65;;
27201;SDS011;14717;46.924;15.474;2023-05-07T11:20:48;4.38;;;2.58;;
27201;SDS011;14717;46.924;15.474;2023-05-07T11:25:59;3.78;;;2.53;;
27201;SDS011;14717;46.924;15.474;2023-05-07T11:28:27;4.32;;;2.45;;
27201;SDS011;14717;46.924;15.474;2023-05-07T11:30:53;4.25;;;2.38;;
27201;SDS011;14717;46.924;15.474;2023-05-07T11:33:19;5.20;;;2.95;;
27201;SDS011;14717;46.924;15.474;2023-05-07T11:35:44;3.63;;;2.33;;
27201;SDS011;14717;46.924;15.474;2023-05-07T11:38:11;3.65;;;2.47;;
27201;SDS011;14717;46.924;15.474;2023-05-07T11:40:54;4.95;;;2.92;;
27201;SDS011;14717;46.924;15.474;2023-05-07T11:43:21;4.97;;;2.90;;
27201;SDS011;14717;46.924;15.474;2023-05-07T11:45:47;5.15;;;3.10;;
27201;SDS011;14717;46.924;15.474;2023-05-07T11:48:13;3.95;;;3.13;;
27201;SDS011;14717;46.924;15.474;2023-05-07T11:50:53;5.40;;;3.35;;
27201;SDS011;14717;46.924;15.474;2023-05-07T11:53:25;4.65;;;3.20;;
27201;SDS011;14717;46.924;15.474;2023-05-07T11:55:57;4.90;;;2.90;;
27201;SDS011;14717;46.924;15.474;2023-05-07T12:00:51;4.70;;;3.40;;
27201;SDS011;14717;46.924;15.474;2023-05-07T12:03:17;4.45;;;3.08;;
27201;SDS011;14717;46.924;15.474;2023-05-07T12:05:45;8.23;;;5.10;;
27201;SDS011;14717;46.924;15.474;2023-05-07T12:08:17;7.05;;;3.45;;
27201;SDS011;14717;46.924;15.474;2023-05-07T12:10:45;6.97;;;3.35;;
27201;SDS011;14717;46.924;15.474;2023-05-07T12:13:15;5.57;;;3.60;;
27201;SDS011;14717;46.924;15.474;2023-05-07T12:15:45;4.10;;;2.92;;
27201;SDS011;14717;46.924;15.474;2023-05-07T12:18:11;6.55;;;2.97;;
27201;SDS011;14717;46.924;15.474;2023-05-07T12:20:37;4.32;;;3.15;;
27201;SDS011;14717;46.924;15.474;2023-05-07T12:23:03;3.35;;;2.72;;
27201;SDS011;14717;46.924;15.474;2023-05-07T12:25:34;5.68;;;3.65;;
27201;SDS011;14717;46.924;15.474;2023-05-07T12:28:01;5.10;;;3.53;;
27201;SDS011;14717;46.924;15.474;2023-05-07T12:30:27;5.85;;;3.38;;
27201;SDS011;14717;46.924;15.474;2023-05-07T12:32:55;4.35;;;3.05;;
27201;SDS011;14717;46.924;15.474;2023-05-07T12:35:28;5.15;;;3.13;;
27201;SDS011;14717;46.924;15.474;2023-05-07T12:37:57;5.22;;;3.40;;
27201;SDS011;14717;46.924;15.474;2023-05-07T12:40:25;4.82;;;3.28;;
27201;SDS011;14717;46.924;15.474;2023-05-07T12:43:00;4.57;;;3.13;;
27201;SDS011;14717;46.924;15.474;2023-05-07T12:45:26;5.15;;;3.03;;
27201;SDS011;14717;46.924;15.474;2023-05-07T12:47:51;4.88;;;3.03;;
27201;SDS011;14717;46.924;15.474;2023-05-07T12:50:17;4.80;;;3.25;;
27201;SDS011;14717;46.924;15.474;2023-05-07T12:52:43;4.22;;;3.13;;
27201;SDS011;14717;46.924;15.474;2023-05-07T12:55:12;5.30;;;3.10;;
27201;SDS011;14717;46.924;15.474;2023-05-07T12:57:43;6.15;;;3.05;;
27201;SDS011;14717;46.924;15.474;2023-05-07T13:00:13;4.75;;;3.13;;
27201;SDS011;14717;46.924;15.474;2023-05-07T13:02:40;5.35;;;2.85;;
27201;SDS011;14717;46.924;15.474;2023-05-07T13:05:09;4.18;;;2.92;;
27201;SDS011;14717;46.924;15.474;2023-05-07T13:07:35;7.00;;;3.40;;
27201;SDS011;14717;46.924;15.474;2023-05-07T13:10:01;3.53;;;2.92;;
27201;SDS011;14717;46.924;15.474;2023-05-07T13:12:27;3.90;;;2.97;;
27201;SDS011;14717;46.924;15.474;2023-05-07T13:14:53;4.03;;;3.00;;
27201;SDS011;14717;46.924;15.474;2023-05-07T13:17:18;4.10;;;2.63;;
27201;SDS011;14717;46.924;15.474;2023-05-07T13:19:44;4.45;;;3.17;;
27201;SDS011;14717;46.924;15.474;2023-05-07T13:22:09;4.30;;;3.15;;
27201;SDS011;14717;46.924;15.474;2023-05-07T13:24:34;6.22;;;3.35;;
27201;SDS011;14717;46.924;15.474;2023-05-07T13:27:00;4.80;;;3.20;;
27201;SDS011;14717;46.924;15.474;2023-05-07T13:29:25;4.82;;;3.10;;
27201;SDS011;14717;46.924;15.474;2023-05-07T13:31:55;4.50;;;3.00;;
27201;SDS011;14717;46.924;15.474;2023-05-07T13:34:21;5.15;;;3.70;;
27201;SDS011;14717;46.924;15.474;2023-05-07T13:36:47;7.43;;;4.38;;
27201;SDS011;14717;46.924;15.474;2023-05-07T13:39:12;6.75;;;4.15;;
27201;SDS011;14717;46.924;15.474;2023-05-07T13:41:37;5.88;;;3.47;;
27201;SDS011;14717;46.924;15.474;2023-05-07T13:44:03;5.40;;;3.90;;
27201;SDS011;14717;46.924;15.474;2023-05-07T13:46:29;5.47;;;3.63;;
27201;SDS011;14717;46.924;15.474;2023-05-07T13:48:54;5.97;;;3.92;;
27201;SDS011;14717;46.924;15.474;2023-05-07T13:51:20;5.55;;;3.55;;
27201;SDS011;14717;46.924;15.474;2023-05-07T13:53:46;6.28;;;4.32;;
27201;SDS011;14717;46.924;15.474;2023-05-07T13:56:12;6.47;;;3.83;;
27201;SDS011;14717;46.924;15.474;2023-05-07T13:58:37;6.85;;;4.90;;
27201;SDS011;14717;46.924;15.474;2023-05-07T14:01:03;7.28;;;4.28;;
27201;SDS011;14717;46.924;15.474;2023-05-07T14:03:28;16.45;;;4.20;;
27201;SDS011;14717;46.924;15.474;2023-05-07T14:05:56;9.70;;;3.78;;
27201;SDS011;14717;46.924;15.474;2023-05-07T14:08:22;6.65;;;3.80;;
27201;SDS011;14717;46.924;15.474;2023-05-07T14:10:48;8.48;;;2.95;;
27201;SDS011;14717;46.924;15.474;2023-05-07T14:13:13;4.28;;;1.60;;
27201;SDS011;14717;46.924;15.474;2023-05-07T14:15:39;2.65;;;1.40;;
27201;SDS011;14717;46.924;15.474;2023-05-07T14:18:05;1.75;;;1.20;;
27201;SDS011;14717;46.924;15.474;2023-05-07T14:20:30;4.00;;;2.75;;
27201;SDS011;14717;46.924;15.474;2023-05-07T14:22:56;5.80;;;3.10;;
27201;SDS011;14717;46.924;15.474;2023-05-07T14:25:21;5.10;;;3.58;;
27201;SDS011;14717;46.924;15.474;2023-05-07T14:27:47;6.53;;;4.00;;
27201;SDS011;14717;46.924;15.474;2023-05-07T14:30:12;6.97;;;4.13;;
27201;SDS011;14717;46.924;15.474;2023-05-07T14:32:38;6.88;;;4.32;;
27201;SDS011;14717;46.924;15.474;2023-05-07T14:35:03;8.32;;;4.65;;
27201;SDS011;14717;46.924;15.474;2023-05-07T14:37:29;8.15;;;4.57;;
27201;SDS011;14717;46.924;15.474;2023-05-07T14:42:20;9.30;;;5.35;;
27201;SDS011;14717;46.924;15.474;2023-05-07T14:44:45;7.35;;;5.20;;
27201;SDS011;14717;46.924;15.474;2023-05-07T14:47:13;7.25;;;5.10;;
27201;SDS011;14717;46.924;15.474;2023-05-07T14:49:38;8.90;;;5.53;;
27201;SDS011;14717;46.924;15.474;2023-05-07T14:52:04;9.60;;;5.85;;
27201;SDS011;14717;46.924;15.474;2023-05-07T14:54:33;11.07;;;5.78;;
27201;SDS011;14717;46.924;15.474;2023-05-07T14:56:59;12.00;;;6.22;;
27201;SDS011;14717;46.924;15.474;2023-05-07T14:59:25;10.60;;;6.47;;
27201;SDS011;14717;46.924;15.474;2023-05-07T15:01:50;10.93;;;6.75;;
27201;SDS011;14717;46.924;15.474;2023-05-07T15:04:16;10.63;;;7.05;;
27201;SDS011;14717;46.924;15.474;2023-05-07T15:06:41;12.38;;;7.00;;
27201;SDS011;14717;46.924;15.474;2023-05-07T15:09:06;10.60;;;6.68;;
27201;SDS011;14717;46.924;15.474;2023-05-07T15:11:33;10.40;;;7.30;;
27201;SDS011;14717;46.924;15.474;2023-05-07T15:13:58;10.70;;;7.28;;
27201;SDS011;14717;46.924;15.474;2023-05-07T15:16:24;12.88;;;7.68;;
27201;SDS011;14717;46.924;15.474;2023-05-07T15:18:49;12.77;;;8.40;;
27201;SDS011;14717;46.924;15.474;2023-05-07T15:23:40;12.83;;;7.63;;
27201;SDS011;14717;46.924;15.474;2023-05-07T15:26:06;12.60;;;7.28;;
27201;SDS011;14717;46.924;15.474;2023-05-07T15:28:32;13.18;;;7.72;;
27201;SDS011;14717;46.924;15.474;2023-05-07T15:30:58;10.80;;;7.65;;
27201;SDS011;14717;46.924;15.474;2023-05-07T15:33:23;12.68;;;7.85;;
27201;SDS011;14717;46.924;15.474;2023-05-07T15:35:49;14.43;;;8.77;;
27201;SDS011;14717;46.924;15.474;2023-05-07T15:38:14;12.98;;;7.60;;
27201;SDS011;14717;46.924;15.474;2023-05-07T15:40:40;11.73;;;7.68;;
27201;SDS011;14717;46.924;15.474;2023-05-07T15:43:07;11.93;;;7.53;;
27201;SDS011;14717;46.924;15.474;2023-05-07T15:45:36;12.60;;;7.70;;
27201;SDS011;14717;46.924;15.474;2023-05-07T15:48:07;11.48;;;7.50;;
27201;SDS011;14717;46.924;15.474;2023-05-07T15:50:33;13.38;;;7.93;;
27201;SDS011;14717;46.924;15.474;2023-05-07T15:52:58;11.88;;;7.55;;
27201;SDS011;14717;46.924;15.474;2023-05-07T15:55:23;10.40;;;7.13;;
27201;SDS011;14717;46.924;15.474;2023-05-07T15:57:50;11.10;;;7.47;;
27201;SDS011;14717;46.924;15.474;2023-05-07T16:00:16;12.35;;;7.50;;
27201;SDS011;14717;46.924;15.474;2023-05-07T16:02:43;13.60;;;7.68;;
27201;SDS011;14717;46.924;15.474;2023-05-07T16:05:09;11.07;;;7.18;;
27201;SDS011;14717;46.924;15.474;2023-05-07T16:07:35;14.73;;;7.10;;
27201;SDS011;14717;46.924;15.474;2023-05-07T16:10:03;11.75;;;7.45;;
27201;SDS011;14717;46.924;15.474;2023-05-07T16:12:29;11.65;;;7.00;;
27201;SDS011;14717;46.924;15.474;2023-05-07T16:14:55;12.07;;;7.13;;
27201;SDS011;14717;46.924;15.474;2023-05-07T16:17:20;14.32;;;8.30;;
27201;SDS011;14717;46.924;15.474;2023-05-07T16:19:46;10.68;;;7.03;;
27201;SDS011;14717;46.924;15.474;2023-05-07T16:22:11;11.00;;;7.25;;
27201;SDS011;14717;46.924;15.474;2023-05-07T16:24:37;12.32;;;8.15;;
27201;SDS011;14717;46.924;15.474;2023-05-07T16:27:02;10.98;;;6.97;;
27201;SDS011;14717;46.924;15.474;2023-05-07T16:29:27;11.30;;;7.20;;
27201;SDS011;14717;46.924;15.474;2023-05-07T16:31:53;11.43;;;7.28;;
27201;SDS011;14717;46.924;15.474;2023-05-07T16:34:19;12.00;;;7.13;;
27201;SDS011;14717;46.924;15.474;2023-05-07T16:36:45;10.13;;;7.05;;
27201;SDS011;14717;46.924;15.474;2023-05-07T16:39:11;11.35;;;7.60;;
27201;SDS011;14717;46.924;15.474;2023-05-07T16:41:36;10.65;;;7.40;;
27201;SDS011;14717;46.924;15.474;2023-05-07T16:44:02;12.10;;;7.43;;
27201;SDS011;14717;46.924;15.474;2023-05-07T16:46:28;12.55;;;7.55;;
27201;SDS011;14717;46.924;15.474;2023-05-07T16:48:54;13.10;;;7.87;;